sensor_id;sensor_type;location;lat;lon;timestamp;temperature;humidity
45115;DHT22;30877;43.706;10.780;2023-04-21T00:00:19;15.30;96.70
45115;DHT22;30877;43.706;10.780;2023-04-21T00:02:47;15.20;96.70
45115;DHT22;30877;43.706;10.780;2023-04-21T00:05:16;15.20;96.70
45115;DHT22;30877;43.706;10.780;2023-04-21T00:07:46;15.10;96.70
45115;DHT22;30877;43.706;10.780;2023-04-21T00:10:14;15.10;96.70
45115;DHT22;30877;43.706;10.780;2023-04-21T00:12:42;15.20;96.70
45115;DHT22;30877;43.706;10.780;2023-04-21T00:15:10;15.30;96.70
45115;DHT22;30877;43.706;10.780;2023-04-21T00:17:39;15.30;96.70
45115;DHT22;30877;43.706;10.780;2023-04-21T00:20:08;15.20;96.70
45115;DHT22;30877;43.706;10.780;2023-04-21T00:22:37;15.10;96.70
45115;DHT22;30877;43.706;10.780;2023-04-21T00:25:07;15.10;96.70
45115;DHT22;30877;43.706;10.780;2023-04-21T00:27:35;15.20;96.70
45115;DHT22;30877;43.706;10.780;2023-04-21T00:30:04;15.20;96.70
45115;DHT22;30877;43.706;10.780;2023-04-21T00:32:35;15.20;96.70
45115;DHT22;30877;43.706;10.780;2023-04-21T00:35:04;15.10;96.70
45115;DHT22;30877;43.706;10.780;2023-04-21T00:37:36;15.00;96.70
45115;DHT22;30877;43.706;10.780;2023-04-21T00:40:07;14.90;96.70
45115;DHT22;30877;43.706;10.780;2023-04-21T00:42:35;15.00;96.70
45115;DHT22;30877;43.706;10.780;2023-04-21T00:45:03;15.00;96.70
45115;DHT22;30877;43.706;10.780;2023-04-21T00:47:31;15.00;96.70
45115;DHT22;30877;43.706;10.780;2023-04-21T00:49:59;14.90;96.70
45115;DHT22;30877;43.706;10.780;2023-04-21T00:52:28;14.90;96.70
45115;DHT22;30877;43.706;10.780;2023-04-21T00:54:57;14.90;96.70
45115;DHT22;30877;43.706;10.780;2023-04-21T00:57:28;15.00;96.70
45115;DHT22;30877;43.706;10.780;2023-04-21T00:59:58;14.90;96.70
45115;DHT22;30877;43.706;10.780;2023-04-21T01:02:26;15.00;96.70
45115;DHT22;30877;43.706;10.780;2023-04-21T01:04:55;15.00;96.70
45115;DHT22;30877;43.706;10.780;2023-04-21T01:07:25;15.00;96.70
45115;DHT22;30877;43.706;10.780;2023-04-21T01:09:55;15.00;96.70
45115;DHT22;30877;43.706;10.780;2023-04-21T01:12:24;14.80;96.70
45115;DHT22;30877;43.706;10.780;2023-04-21T01:14:53;14.80;96.70
45115;DHT22;30877;43.706;10.780;2023-04-21T01:17:21;14.70;96.70
45115;DHT22;30877;43.706;10.780;2023-04-21T01:19:50;14.70;96.70
45115;DHT22;30877;43.706;10.780;2023-04-21T01:22:21;14.70;96.70
45115;DHT22;30877;43.706;10.780;2023-04-21T01:24:50;14.70;96.70
45115;DHT22;30877;43.706;10.780;2023-04-21T01:27:19;14.70;96.70
45115;DHT22;30877;43.706;10.780;2023-04-21T01:29:50;14.60;96.70
45115;DHT22;30877;43.706;10.780;2023-04-21T01:32:20;14.60;96.70
45115;DHT22;30877;43.706;10.780;2023-04-21T01:35:01;14.50;96.70
45115;DHT22;30877;43.706;10.780;2023-04-21T01:37:32;14.50;96.70
45115;DHT22;30877;43.706;10.780;2023-04-21T01:40:02;14.50;96.70
45115;DHT22;30877;43.706;10.780;2023-04-21T01:42:34;14.40;96.70
45115;DHT22;30877;43.706;10.780;2023-04-21T01:45:03;14.40;96.70
45115;DHT22;30877;43.706;10.780;2023-04-21T01:47:31;14.40;96.70
45115;DHT22;30877;43.706;10.780;2023-04-21T01:50:00;14.60;96.70
45115;DHT22;30877;43.706;10.780;2023-04-21T01:52:29;14.60;96.70
45115;DHT22;30877;43.706;10.780;2023-04-21T01:54:57;14.60;96.70
45115;DHT22;30877;43.706;10.780;2023-04-21T01:57:26;14.40;96.70
45115;DHT22;30877;43.706;10.780;2023-04-21T01:59:55;14.40;96.70
45115;DHT22;30877;43.706;10.780;2023-04-21T02:02:24;14.40;96.70
45115;DHT22;30877;43.706;10.780;2023-04-21T02:04:52;14.40;96.70
45115;DHT22;30877;43.706;10.780;2023-04-21T02:07:20;14.40;96.70
45115;DHT22;30877;43.706;10.780;2023-04-21T02:09:49;14.30;96.70
45115;DHT22;30877;43.706;10.780;2023-04-21T02:12:18;14.20;96.70
45115;DHT22;30877;43.706;10.780;2023-04-21T02:14:46;14.00;96.70
45115;DHT22;30877;43.706;10.780;2023-04-21T02:17:14;14.10;96.70
45115;DHT22;30877;43.706;10.780;2023-04-21T02:19:43;14.00;96.70
45115;DHT22;30877;43.706;10.780;2023-04-21T02:22:11;14.00;96.70
45115;DHT22;30877;43.706;10.780;2023-04-21T02:24:39;14.00;96.70
45115;DHT22;30877;43.706;10.780;2023-04-21T02:27:09;13.90;96.70
45115;DHT22;30877;43.706;10.780;2023-04-21T02:29:37;14.00;96.70
45115;DHT22;30877;43.706;10.780;2023-04-21T02:32:07;14.00;96.70
45115;DHT22;30877;43.706;10.780;2023-04-21T02:34:51;14.00;96.70
45115;DHT22;30877;43.706;10.780;2023-04-21T02:37:19;14.00;96.70
45115;DHT22;30877;43.706;10.780;2023-04-21T02:39:53;14.10;96.70
45115;DHT22;30877;43.706;10.780;2023-04-21T02:42:25;14.20;96.70
45115;DHT22;30877;43.706;10.780;2023-04-21T02:44:53;14.20;96.70
45115;DHT22;30877;43.706;10.780;2023-04-21T02:47:22;14.10;96.70
45115;DHT22;30877;43.706;10.780;2023-04-21T02:49:50;14.10;96.70
45115;DHT22;30877;43.706;10.780;2023-04-21T02:52:17;14.10;96.70
45115;DHT22;30877;43.706;10.780;2023-04-21T02:54:45;14.00;96.70
45115;DHT22;30877;43.706;10.780;2023-04-21T02:57:13;14.00;96.70
45115;DHT22;30877;43.706;10.780;2023-04-21T02:59:43;13.90;96.70
45115;DHT22;30877;43.706;10.780;2023-04-21T03:02:11;13.90;96.70
45115;DHT22;30877;43.706;10.780;2023-04-21T03:04:39;14.00;96.70
45115;DHT22;30877;43.706;10.780;2023-04-21T03:07:11;13.90;96.70
45115;DHT22;30877;43.706;10.780;2023-04-21T03:09:44;13.90;96.70
45115;DHT22;30877;43.706;10.780;2023-04-21T03:12:13;13.90;96.70
45115;DHT22;30877;43.706;10.780;2023-04-21T03:14:42;13.80;96.70
45115;DHT22;30877;43.706;10.780;2023-04-21T03:17:10;13.80;96.70
45115;DHT22;30877;43.706;10.780;2023-04-21T03:19:38;13.90;96.70
45115;DHT22;30877;43.706;10.780;2023-04-21T03:22:07;13.90;96.70
45115;DHT22;30877;43.706;10.780;2023-04-21T03:24:35;13.80;96.70
45115;DHT22;30877;43.706;10.780;2023-04-21T03:27:04;13.70;96.70
45115;DHT22;30877;43.706;10.780;2023-04-21T03:29:34;13.70;96.70
45115;DHT22;30877;43.706;10.780;2023-04-21T03:32:04;13.70;96.70
45115;DHT22;30877;43.706;10.780;2023-04-21T03:34:32;13.70;96.70
45115;DHT22;30877;43.706;10.780;2023-04-21T03:37:03;13.70;96.70
45115;DHT22;30877;43.706;10.780;2023-04-21T03:39:32;13.70;96.70
45115;DHT22;30877;43.706;10.780;2023-04-21T03:42:00;13.70;96.70
45115;DHT22;30877;43.706;10.780;2023-04-21T03:44:29;13.60;96.70
45115;DHT22;30877;43.706;10.780;2023-04-21T03:46:59;13.60;96.70
45115;DHT22;30877;43.706;10.780;2023-04-21T03:49:33;13.70;96.70
45115;DHT22;30877;43.706;10.780;2023-04-21T03:52:01;13.70;96.70
45115;DHT22;30877;43.706;10.780;2023-04-21T03:54:29;13.70;96.70
45115;DHT22;30877;43.706;10.780;2023-04-21T03:56:57;13.70;96.70
45115;DHT22;30877;43.706;10.780;2023-04-21T03:59:25;13.70;96.70
45115;DHT22;30877;43.706;10.780;2023-04-21T04:01:53;13.60;96.70
45115;DHT22;30877;43.706;10.780;2023-04-21T04:04:21;13.60;96.70
45115;DHT22;30877;43.706;10.780;2023-04-21T04:06:51;13.50;96.70
45115;DHT22;30877;43.706;10.780;2023-04-21T04:09:19;13.50;96.70
45115;DHT22;30877;43.706;10.780;2023-04-21T04:11:47;13.50;96.70
45115;DHT22;30877;43.706;10.780;2023-04-21T04:14:16;13.40;96.70
45115;DHT22;30877;43.706;10.780;2023-04-21T04:16:44;13.50;96.70
45115;DHT22;30877;43.706;10.780;2023-04-21T04:19:12;13.30;96.70
45115;DHT22;30877;43.706;10.780;2023-04-21T04:21:40;13.10;96.70
45115;DHT22;30877;43.706;10.780;2023-04-21T04:24:10;13.20;96.70
45115;DHT22;30877;43.706;10.780;2023-04-21T04:26:38;13.30;96.70
45115;DHT22;30877;43.706;10.780;2023-04-21T04:29:06;13.30;96.70
45115;DHT22;30877;43.706;10.780;2023-04-21T04:31:37;13.30;96.70
45115;DHT22;30877;43.706;10.780;2023-04-21T04:34:05;13.30;96.70
45115;DHT22;30877;43.706;10.780;2023-04-21T04:36:33;13.30;96.70
45115;DHT22;30877;43.706;10.780;2023-04-21T04:39:01;13.20;96.70
45115;DHT22;30877;43.706;10.780;2023-04-21T04:41:32;13.20;96.70
45115;DHT22;30877;43.706;10.780;2023-04-21T04:44:17;13.10;96.70
45115;DHT22;30877;43.706;10.780;2023-04-21T04:46:46;13.20;96.70
45115;DHT22;30877;43.706;10.780;2023-04-21T04:49:16;13.10;96.70
45115;DHT22;30877;43.706;10.780;2023-04-21T04:51:44;13.10;96.70
45115;DHT22;30877;43.706;10.780;2023-04-21T04:54:13;13.20;96.70
45115;DHT22;30877;43.706;10.780;2023-04-21T04:56:42;13.20;96.70
45115;DHT22;30877;43.706;10.780;2023-04-21T04:59:10;13.20;96.70
45115;DHT22;30877;43.706;10.780;2023-04-21T05:01:38;13.20;96.70
45115;DHT22;30877;43.706;10.780;2023-04-21T05:04:08;13.20;96.70
45115;DHT22;30877;43.706;10.780;2023-04-21T05:06:36;13.20;96.70
45115;DHT22;30877;43.706;10.780;2023-04-21T05:09:04;13.30;96.70
45115;DHT22;30877;43.706;10.780;2023-04-21T05:11:32;13.40;96.70
45115;DHT22;30877;43.706;10.780;2023-04-21T05:14:02;13.50;96.70
45115;DHT22;30877;43.706;10.780;2023-04-21T05:16:30;13.50;96.70
45115;DHT22;30877;43.706;10.780;2023-04-21T05:19:00;13.40;96.70
45115;DHT22;30877;43.706;10.780;2023-04-21T05:21:28;13.40;96.70
45115;DHT22;30877;43.706;10.780;2023-04-21T05:23:56;13.40;96.70
45115;DHT22;30877;43.706;10.780;2023-04-21T05:26:25;13.50;96.70
45115;DHT22;30877;43.706;10.780;2023-04-21T05:28:54;13.60;96.70
45115;DHT22;30877;43.706;10.780;2023-04-21T05:31:24;13.50;96.70
45115;DHT22;30877;43.706;10.780;2023-04-21T05:33:52;13.50;96.70
45115;DHT22;30877;43.706;10.780;2023-04-21T05:36:20;13.40;96.70
45115;DHT22;30877;43.706;10.780;2023-04-21T05:38:49;13.40;96.70
45115;DHT22;30877;43.706;10.780;2023-04-21T05:41:17;13.50;96.70
45115;DHT22;30877;43.706;10.780;2023-04-21T05:43:45;13.50;96.70
45115;DHT22;30877;43.706;10.780;2023-04-21T05:46:14;13.60;96.70
45115;DHT22;30877;43.706;10.780;2023-04-21T05:48:43;13.60;96.70
45115;DHT22;30877;43.706;10.780;2023-04-21T05:51:12;13.60;96.70
45115;DHT22;30877;43.706;10.780;2023-04-21T05:53:42;13.80;96.70
45115;DHT22;30877;43.706;10.780;2023-04-21T05:56:11;13.90;96.70
45115;DHT22;30877;43.706;10.780;2023-04-21T05:58:39;14.00;96.70
45115;DHT22;30877;43.706;10.780;2023-04-21T06:01:08;14.00;96.70
45115;DHT22;30877;43.706;10.780;2023-04-21T06:03:36;13.90;96.70
45115;DHT22;30877;43.706;10.780;2023-04-21T06:06:10;13.50;96.70
45115;DHT22;30877;43.706;10.780;2023-04-21T06:08:39;13.40;96.70
45115;DHT22;30877;43.706;10.780;2023-04-21T06:11:07;13.30;96.70
45115;DHT22;30877;43.706;10.780;2023-04-21T06:13:35;13.30;96.70
45115;DHT22;30877;43.706;10.780;2023-04-21T06:16:06;13.30;96.70
45115;DHT22;30877;43.706;10.780;2023-04-21T06:18:34;13.30;96.70
45115;DHT22;30877;43.706;10.780;2023-04-21T06:21:02;13.30;96.70
45115;DHT22;30877;43.706;10.780;2023-04-21T06:23:31;13.30;96.70
45115;DHT22;30877;43.706;10.780;2023-04-21T06:26:00;13.30;96.70
45115;DHT22;30877;43.706;10.780;2023-04-21T06:28:30;13.20;96.70
45115;DHT22;30877;43.706;10.780;2023-04-21T06:30:58;13.30;96.70
45115;DHT22;30877;43.706;10.780;2023-04-21T06:33:27;13.40;96.70
45115;DHT22;30877;43.706;10.780;2023-04-21T06:35:55;13.70;96.70
45115;DHT22;30877;43.706;10.780;2023-04-21T06:38:23;13.70;96.70
45115;DHT22;30877;43.706;10.780;2023-04-21T06:40:52;13.80;96.70
45115;DHT22;30877;43.706;10.780;2023-04-21T06:43:20;13.90;96.70
45115;DHT22;30877;43.706;10.780;2023-04-21T06:45:48;14.00;96.70
45115;DHT22;30877;43.706;10.780;2023-04-21T06:48:16;14.20;96.70
45115;DHT22;30877;43.706;10.780;2023-04-21T06:50:44;14.10;96.70
45115;DHT22;30877;43.706;10.780;2023-04-21T06:53:13;14.00;96.70
45115;DHT22;30877;43.706;10.780;2023-04-21T06:55:41;14.10;96.70
45115;DHT22;30877;43.706;10.780;2023-04-21T06:58:10;14.20;96.70
45115;DHT22;30877;43.706;10.780;2023-04-21T07:00:38;14.10;96.70
45115;DHT22;30877;43.706;10.780;2023-04-21T07:03:06;14.20;96.70
45115;DHT22;30877;43.706;10.780;2023-04-21T07:05:34;14.20;96.70
45115;DHT22;30877;43.706;10.780;2023-04-21T07:08:02;14.40;96.70
45115;DHT22;30877;43.706;10.780;2023-04-21T07:10:30;14.60;96.70
45115;DHT22;30877;43.706;10.780;2023-04-21T07:12:58;14.50;96.70
45115;DHT22;30877;43.706;10.780;2023-04-21T07:15:27;14.60;96.70
45115;DHT22;30877;43.706;10.780;2023-04-21T07:17:55;14.70;96.70
45115;DHT22;30877;43.706;10.780;2023-04-21T07:20:25;14.80;96.70
45115;DHT22;30877;43.706;10.780;2023-04-21T07:22:53;14.90;96.70
45115;DHT22;30877;43.706;10.780;2023-04-21T07:25:21;15.00;96.70
45115;DHT22;30877;43.706;10.780;2023-04-21T07:27:49;15.10;96.70
45115;DHT22;30877;43.706;10.780;2023-04-21T07:30:17;15.10;96.70
45115;DHT22;30877;43.706;10.780;2023-04-21T07:32:46;15.00;96.70
45115;DHT22;30877;43.706;10.780;2023-04-21T07:35:15;15.20;96.70
45115;DHT22;30877;43.706;10.780;2023-04-21T07:37:43;15.10;96.70
45115;DHT22;30877;43.706;10.780;2023-04-21T07:40:14;15.10;96.70
45115;DHT22;30877;43.706;10.780;2023-04-21T07:42:42;15.20;96.70
45115;DHT22;30877;43.706;10.780;2023-04-21T07:45:10;15.20;96.70
45115;DHT22;30877;43.706;10.780;2023-04-21T07:47:39;15.20;96.70
45115;DHT22;30877;43.706;10.780;2023-04-21T07:50:09;15.30;96.70
45115;DHT22;30877;43.706;10.780;2023-04-21T07:52:37;15.40;96.70
45115;DHT22;30877;43.706;10.780;2023-04-21T07:55:05;15.30;96.70
45115;DHT22;30877;43.706;10.780;2023-04-21T07:57:34;15.30;96.70
45115;DHT22;30877;43.706;10.780;2023-04-21T08:00:06;15.20;96.70
45115;DHT22;30877;43.706;10.780;2023-04-21T08:02:40;15.20;96.70
45115;DHT22;30877;43.706;10.780;2023-04-21T08:05:10;15.30;96.70
45115;DHT22;30877;43.706;10.780;2023-04-21T08:07:38;15.30;96.70
45115;DHT22;30877;43.706;10.780;2023-04-21T08:10:07;15.40;96.70
45115;DHT22;30877;43.706;10.780;2023-04-21T08:12:35;15.40;96.70
45115;DHT22;30877;43.706;10.780;2023-04-21T08:15:03;15.40;96.70
45115;DHT22;30877;43.706;10.780;2023-04-21T08:17:34;15.50;96.70
45115;DHT22;30877;43.706;10.780;2023-04-21T08:20:03;15.50;96.70
45115;DHT22;30877;43.706;10.780;2023-04-21T08:22:35;15.60;96.70
45115;DHT22;30877;43.706;10.780;2023-04-21T08:25:04;15.60;96.70
45115;DHT22;30877;43.706;10.780;2023-04-21T08:27:32;15.70;96.70
45115;DHT22;30877;43.706;10.780;2023-04-21T08:30:00;15.80;96.70
45115;DHT22;30877;43.706;10.780;2023-04-21T08:32:28;15.80;96.70
45115;DHT22;30877;43.706;10.780;2023-04-21T08:34:56;15.80;96.70
45115;DHT22;30877;43.706;10.780;2023-04-21T08:37:23;15.80;96.70
45115;DHT22;30877;43.706;10.780;2023-04-21T08:39:53;15.90;96.70
45115;DHT22;30877;43.706;10.780;2023-04-21T08:42:21;16.00;96.70
45115;DHT22;30877;43.706;10.780;2023-04-21T08:44:49;16.20;96.70
45115;DHT22;30877;43.706;10.780;2023-04-21T08:47:17;16.20;96.70
45115;DHT22;30877;43.706;10.780;2023-04-21T08:49:49;16.30;96.70
45115;DHT22;30877;43.706;10.780;2023-04-21T08:52:17;16.30;96.70
45115;DHT22;30877;43.706;10.780;2023-04-21T08:54:45;16.40;96.70
45115;DHT22;30877;43.706;10.780;2023-04-21T08:57:16;16.60;96.70
45115;DHT22;30877;43.706;10.780;2023-04-21T08:59:44;16.70;96.70
45115;DHT22;30877;43.706;10.780;2023-04-21T09:02:13;16.70;96.70
45115;DHT22;30877;43.706;10.780;2023-04-21T09:04:44;16.70;96.70
45115;DHT22;30877;43.706;10.780;2023-04-21T09:07:30;16.80;96.70
45115;DHT22;30877;43.706;10.780;2023-04-21T09:10:00;16.90;96.70
45115;DHT22;30877;43.706;10.780;2023-04-21T09:12:29;17.00;96.70
45115;DHT22;30877;43.706;10.780;2023-04-21T09:14:57;17.00;96.70
45115;DHT22;30877;43.706;10.780;2023-04-21T09:17:28;17.10;96.70
45115;DHT22;30877;43.706;10.780;2023-04-21T09:20:12;17.30;96.70
45115;DHT22;30877;43.706;10.780;2023-04-21T09:22:41;17.40;96.70
45115;DHT22;30877;43.706;10.780;2023-04-21T09:25:09;17.40;96.70
45115;DHT22;30877;43.706;10.780;2023-04-21T09:27:44;17.60;96.70
45115;DHT22;30877;43.706;10.780;2023-04-21T09:30:14;17.70;96.70
45115;DHT22;30877;43.706;10.780;2023-04-21T09:32:45;17.80;96.70
45115;DHT22;30877;43.706;10.780;2023-04-21T09:35:13;17.80;96.70
45115;DHT22;30877;43.706;10.780;2023-04-21T09:37:43;17.90;96.70
45115;DHT22;30877;43.706;10.780;2023-04-21T09:40:14;18.00;96.70
45115;DHT22;30877;43.706;10.780;2023-04-21T09:42:46;18.20;96.70
45115;DHT22;30877;43.706;10.780;2023-04-21T09:45:14;18.30;96.70
45115;DHT22;30877;43.706;10.780;2023-04-21T09:48:03;18.40;96.70
45115;DHT22;30877;43.706;10.780;2023-04-21T09:50:32;18.60;96.70
45115;DHT22;30877;43.706;10.780;2023-04-21T09:53:22;18.60;96.70
45115;DHT22;30877;43.706;10.780;2023-04-21T09:55:53;18.60;96.70
45115;DHT22;30877;43.706;10.780;2023-04-21T09:58:27;18.50;96.70
45115;DHT22;30877;43.706;10.780;2023-04-21T10:00:59;18.60;96.70
45115;DHT22;30877;43.706;10.780;2023-04-21T10:03:27;18.60;96.70
45115;DHT22;30877;43.706;10.780;2023-04-21T10:05:57;18.80;96.70
45115;DHT22;30877;43.706;10.780;2023-04-21T10:08:25;19.00;96.70
45115;DHT22;30877;43.706;10.780;2023-04-21T10:10:54;19.10;96.70
45115;DHT22;30877;43.706;10.780;2023-04-21T10:13:24;19.20;96.70
45115;DHT22;30877;43.706;10.780;2023-04-21T10:16:01;19.50;96.70
45115;DHT22;30877;43.706;10.780;2023-04-21T10:18:30;19.60;96.70
45115;DHT22;30877;43.706;10.780;2023-04-21T10:21:01;19.70;96.70
45115;DHT22;30877;43.706;10.780;2023-04-21T10:23:30;19.80;96.70
45115;DHT22;30877;43.706;10.780;2023-04-21T10:26:08;19.80;96.70
45115;DHT22;30877;43.706;10.780;2023-04-21T10:28:43;19.70;96.70
45115;DHT22;30877;43.706;10.780;2023-04-21T10:31:28;20.00;96.70
45115;DHT22;30877;43.706;10.780;2023-04-21T10:34:27;20.10;96.70
45115;DHT22;30877;43.706;10.780;2023-04-21T10:37:12;20.20;96.70
45115;DHT22;30877;43.706;10.780;2023-04-21T10:39:44;20.20;96.70
45115;DHT22;30877;43.706;10.780;2023-04-21T10:42:24;20.30;96.70
45115;DHT22;30877;43.706;10.780;2023-04-21T10:45:01;20.20;96.70
45115;DHT22;30877;43.706;10.780;2023-04-21T10:47:36;20.30;96.70
45115;DHT22;30877;43.706;10.780;2023-04-21T10:50:13;20.60;96.70
45115;DHT22;30877;43.706;10.780;2023-04-21T10:52:47;20.60;96.70
45115;DHT22;30877;43.706;10.780;2023-04-21T10:55:18;20.80;96.70
45115;DHT22;30877;43.706;10.780;2023-04-21T10:57:47;20.70;96.70
45115;DHT22;30877;43.706;10.780;2023-04-21T11:00:19;20.60;96.70
45115;DHT22;30877;43.706;10.780;2023-04-21T11:02:59;20.80;96.70
45115;DHT22;30877;43.706;10.780;2023-04-21T11:05:29;21.10;96.70
45115;DHT22;30877;43.706;10.780;2023-04-21T11:08:05;21.20;96.70
45115;DHT22;30877;43.706;10.780;2023-04-21T11:10:49;21.30;96.70
45115;DHT22;30877;43.706;10.780;2023-04-21T11:13:20;21.50;96.70
45115;DHT22;30877;43.706;10.780;2023-04-21T11:16:20;21.60;96.70
45115;DHT22;30877;43.706;10.780;2023-04-21T11:18:49;21.80;96.70
45115;DHT22;30877;43.706;10.780;2023-04-21T11:21:18;21.70;96.70
45115;DHT22;30877;43.706;10.780;2023-04-21T11:23:51;21.60;96.70
45115;DHT22;30877;43.706;10.780;2023-04-21T11:26:29;21.40;96.70
45115;DHT22;30877;43.706;10.780;2023-04-21T11:29:00;21.30;96.70
45115;DHT22;30877;43.706;10.780;2023-04-21T11:31:33;21.60;96.70
45115;DHT22;30877;43.706;10.780;2023-04-21T11:34:04;21.90;96.70
45115;DHT22;30877;43.706;10.780;2023-04-21T11:36:32;22.10;96.70
45115;DHT22;30877;43.706;10.780;2023-04-21T11:39:03;22.20;96.70
45115;DHT22;30877;43.706;10.780;2023-04-21T11:41:35;22.40;96.70
45115;DHT22;30877;43.706;10.780;2023-04-21T11:44:30;22.70;96.70
45115;DHT22;30877;43.706;10.780;2023-04-21T11:47:11;23.00;96.70
45115;DHT22;30877;43.706;10.780;2023-04-21T11:49:44;23.20;96.70
45115;DHT22;30877;43.706;10.780;2023-04-21T11:52:24;23.30;96.70
45115;DHT22;30877;43.706;10.780;2023-04-21T11:54:57;23.20;96.70
45115;DHT22;30877;43.706;10.780;2023-04-21T11:57:25;23.00;96.70
45115;DHT22;30877;43.706;10.780;2023-04-21T12:00:01;23.00;96.70
45115;DHT22;30877;43.706;10.780;2023-04-21T12:02:32;23.10;96.70
45115;DHT22;30877;43.706;10.780;2023-04-21T12:05:02;23.00;96.70
45115;DHT22;30877;43.706;10.780;2023-04-21T12:07:32;22.80;96.70
45115;DHT22;30877;43.706;10.780;2023-04-21T12:10:01;22.90;96.70
45115;DHT22;30877;43.706;10.780;2023-04-21T12:12:29;23.00;96.70
45115;DHT22;30877;43.706;10.780;2023-04-21T12:15:00;23.20;96.70
45115;DHT22;30877;43.706;10.780;2023-04-21T12:17:36;23.40;96.70
45115;DHT22;30877;43.706;10.780;2023-04-21T12:20:06;23.70;96.70
45115;DHT22;30877;43.706;10.780;2023-04-21T12:22:33;23.80;96.70
45115;DHT22;30877;43.706;10.780;2023-04-21T12:25:03;23.60;96.70
45115;DHT22;30877;43.706;10.780;2023-04-21T12:27:31;23.80;96.70
45115;DHT22;30877;43.706;10.780;2023-04-21T12:29:59;23.90;96.70
45115;DHT22;30877;43.706;10.780;2023-04-21T12:32:27;23.90;96.70
45115;DHT22;30877;43.706;10.780;2023-04-21T12:34:57;23.80;96.70
45115;DHT22;30877;43.706;10.780;2023-04-21T12:37:24;24.10;96.70
45115;DHT22;30877;43.706;10.780;2023-04-21T12:39:52;24.10;96.70
45115;DHT22;30877;43.706;10.780;2023-04-21T12:42:20;24.10;96.70
45115;DHT22;30877;43.706;10.780;2023-04-21T12:44:48;24.30;96.70
45115;DHT22;30877;43.706;10.780;2023-04-21T12:47:16;24.30;96.70
45115;DHT22;30877;43.706;10.780;2023-04-21T12:49:44;24.30;96.70
45115;DHT22;30877;43.706;10.780;2023-04-21T12:52:14;24.40;96.70
45115;DHT22;30877;43.706;10.780;2023-04-21T12:54:42;24.30;96.70
45115;DHT22;30877;43.706;10.780;2023-04-21T12:57:11;24.20;96.70
45115;DHT22;30877;43.706;10.780;2023-04-21T12:59:39;23.90;96.70
45115;DHT22;30877;43.706;10.780;2023-04-21T13:02:09;23.50;96.70
45115;DHT22;30877;43.706;10.780;2023-04-21T13:04:38;23.70;96.70
45115;DHT22;30877;43.706;10.780;2023-04-21T13:07:09;23.70;96.70
45115;DHT22;30877;43.706;10.780;2023-04-21T13:09:38;23.80;96.70
45115;DHT22;30877;43.706;10.780;2023-04-21T13:12:06;23.60;96.70
45115;DHT22;30877;43.706;10.780;2023-04-21T13:14:34;23.60;96.70
45115;DHT22;30877;43.706;10.780;2023-04-21T13:17:02;23.70;96.70
45115;DHT22;30877;43.706;10.780;2023-04-21T13:19:30;23.70;96.70
45115;DHT22;30877;43.706;10.780;2023-04-21T13:21:58;23.50;96.70
45115;DHT22;30877;43.706;10.780;2023-04-21T13:24:28;23.30;96.70
45115;DHT22;30877;43.706;10.780;2023-04-21T13:27:09;23.60;96.70
45115;DHT22;30877;43.706;10.780;2023-04-21T13:29:37;23.80;96.70
45115;DHT22;30877;43.706;10.780;2023-04-21T13:32:18;23.80;96.70
45115;DHT22;30877;43.706;10.780;2023-04-21T13:34:46;23.80;96.70
45115;DHT22;30877;43.706;10.780;2023-04-21T13:37:14;23.70;96.70
45115;DHT22;30877;43.706;10.780;2023-04-21T13:39:43;23.50;96.70
45115;DHT22;30877;43.706;10.780;2023-04-21T13:42:13;23.50;96.70
45115;DHT22;30877;43.706;10.780;2023-04-21T13:44:40;23.60;96.70
45115;DHT22;30877;43.706;10.780;2023-04-21T13:47:08;23.40;96.70
45115;DHT22;30877;43.706;10.780;2023-04-21T13:49:36;23.30;96.70
45115;DHT22;30877;43.706;10.780;2023-04-21T13:52:04;23.20;96.70
45115;DHT22;30877;43.706;10.780;2023-04-21T13:54:32;23.20;96.70
45115;DHT22;30877;43.706;10.780;2023-04-21T13:57:00;23.20;96.70
45115;DHT22;30877;43.706;10.780;2023-04-21T13:59:30;23.20;96.70
45115;DHT22;30877;43.706;10.780;2023-04-21T14:01:58;23.30;96.70
45115;DHT22;30877;43.706;10.780;2023-04-21T14:04:26;23.40;96.70
45115;DHT22;30877;43.706;10.780;2023-04-21T14:06:54;23.20;96.70
45115;DHT22;30877;43.706;10.780;2023-04-21T14:09:22;22.90;96.70
45115;DHT22;30877;43.706;10.780;2023-04-21T14:11:50;22.60;96.70
45115;DHT22;30877;43.706;10.780;2023-04-21T14:14:18;22.20;96.70
45115;DHT22;30877;43.706;10.780;2023-04-21T14:17:06;22.00;96.70
45115;DHT22;30877;43.706;10.780;2023-04-21T14:19:34;21.60;96.70
45115;DHT22;30877;43.706;10.780;2023-04-21T14:22:13;21.60;96.70
45115;DHT22;30877;43.706;10.780;2023-04-21T14:24:41;21.40;96.70
45115;DHT22;30877;43.706;10.780;2023-04-21T14:27:09;21.40;96.70
45115;DHT22;30877;43.706;10.780;2023-04-21T14:29:37;21.70;96.70
45115;DHT22;30877;43.706;10.780;2023-04-21T14:32:06;22.50;96.70
45115;DHT22;30877;43.706;10.780;2023-04-21T14:34:34;23.10;96.70
45115;DHT22;30877;43.706;10.780;2023-04-21T14:37:02;23.40;96.70
45115;DHT22;30877;43.706;10.780;2023-04-21T14:39:31;23.40;96.70
45115;DHT22;30877;43.706;10.780;2023-04-21T14:42:00;23.40;96.70
45115;DHT22;30877;43.706;10.780;2023-04-21T14:44:28;23.10;96.70
45115;DHT22;30877;43.706;10.780;2023-04-21T14:46:56;23.70;96.70
45115;DHT22;30877;43.706;10.780;2023-04-21T14:49:38;24.20;96.70
45115;DHT22;30877;43.706;10.780;2023-04-21T14:52:06;24.60;96.70
45115;DHT22;30877;43.706;10.780;2023-04-21T14:54:34;24.70;96.70
45115;DHT22;30877;43.706;10.780;2023-04-21T14:57:02;24.70;96.70
45115;DHT22;30877;43.706;10.780;2023-04-21T14:59:47;24.80;96.70
45115;DHT22;30877;43.706;10.780;2023-04-21T15:02:15;25.00;96.70
45115;DHT22;30877;43.706;10.780;2023-04-21T15:04:44;25.20;96.70
45115;DHT22;30877;43.706;10.780;2023-04-21T15:07:13;25.20;96.70
45115;DHT22;30877;43.706;10.780;2023-04-21T15:09:44;25.30;96.70
45115;DHT22;30877;43.706;10.780;2023-04-21T15:12:14;25.30;96.70
45115;DHT22;30877;43.706;10.780;2023-04-21T15:14:42;25.60;96.70
45115;DHT22;30877;43.706;10.780;2023-04-21T15:17:10;25.90;96.70
45115;DHT22;30877;43.706;10.780;2023-04-21T15:19:38;25.90;96.70
45115;DHT22;30877;43.706;10.780;2023-04-21T15:22:07;25.50;96.70
45115;DHT22;30877;43.706;10.780;2023-04-21T15:24:35;25.60;96.70
45115;DHT22;30877;43.706;10.780;2023-04-21T15:27:03;25.60;96.70
45115;DHT22;30877;43.706;10.780;2023-04-21T15:29:31;25.70;96.70
45115;DHT22;30877;43.706;10.780;2023-04-21T15:32:00;26.00;96.70